sensor_id;sensor_type;location;lat;lon;timestamp;P1;durP1;ratioP1;P2;durP2;ratioP2
8285;SDS011;4181;43.416;24.598;2023-05-07T00:00:33;6.60;;;3.50;;
8285;SDS011;4181;43.416;24.598;2023-05-07T00:02:59;11.00;;;3.83;;
8285;SDS011;4181;43.416;24.598;2023-05-07T00:05:26;10.57;;;4.20;;
8285;SDS011;4181;43.416;24.598;2023-05-07T00:07:52;5.60;;;3.70;;
8285;SDS011;4181;43.416;24.598;2023-05-07T00:10:20;7.80;;;3.80;;
8285;SDS011;4181;43.416;24.598;2023-05-07T00:12:45;11.30;;;3.90;;
8285;SDS011;4181;43.416;24.598;2023-05-07T00:15:11;5.97;;;3.47;;
8285;SDS011;4181;43.416;24.598;2023-05-07T00:17:36;7.67;;;4.47;;
8285;SDS011;4181;43.416;24.598;2023-05-07T00:20:02;8.50;;;5.00;;
8285;SDS011;4181;43.416;24.598;2023-05-07T00:22:29;7.47;;;4.87;;
8285;SDS011;4181;43.416;24.598;2023-05-07T00:24:56;7.23;;;5.30;;
8285;SDS011;4181;43.416;24.598;2023-05-07T00:27:50;9.30;;;5.03;;
8285;SDS011;4181;43.416;24.598;2023-05-07T00:30:16;11.83;;;5.00;;
8285;SDS011;4181;43.416;24.598;2023-05-07T00:32:41;6.63;;;4.73;;
8285;SDS011;4181;43.416;24.598;2023-05-07T00:35:07;11.17;;;4.97;;
8285;SDS011;4181;43.416;24.598;2023-05-07T00:37:33;6.87;;;4.87;;
8285;SDS011;4181;43.416;24.598;2023-05-07T00:39:58;8.73;;;4.83;;
8285;SDS011;4181;43.416;24.598;2023-05-07T00:42:24;9.47;;;4.87;;
8285;SDS011;4181;43.416;24.598;2023-05-07T00:44:49;9.03;;;5.10;;
8285;SDS011;4181;43.416;24.598;2023-05-07T00:47:16;9.43;;;5.50;;
8285;SDS011;4181;43.416;24.598;2023-05-07T00:49:42;14.17;;;5.63;;
8285;SDS011;4181;43.416;24.598;2023-05-07T00:52:11;8.33;;;5.47;;
8285;SDS011;4181;43.416;24.598;2023-05-07T00:54:38;6.80;;;5.33;;
8285;SDS011;4181;43.416;24.598;2023-05-07T00:57:05;9.77;;;5.20;;
8285;SDS011;4181;43.416;24.598;2023-05-07T00:59:31;13.87;;;5.47;;
8285;SDS011;4181;43.416;24.598;2023-05-07T01:01:57;11.00;;;5.27;;
8285;SDS011;4181;43.416;24.598;2023-05-07T01:04:23;6.70;;;5.03;;
8285;SDS011;4181;43.416;24.598;2023-05-07T01:06:49;7.63;;;5.03;;
8285;SDS011;4181;43.416;24.598;2023-05-07T01:09:15;11.43;;;5.03;;
8285;SDS011;4181;43.416;24.598;2023-05-07T01:11:41;7.83;;;4.80;;
8285;SDS011;4181;43.416;24.598;2023-05-07T01:14:08;9.80;;;5.80;;
8285;SDS011;4181;43.416;24.598;2023-05-07T01:16:34;8.47;;;4.90;;
8285;SDS011;4181;43.416;24.598;2023-05-07T01:19:00;8.27;;;5.57;;
8285;SDS011;4181;43.416;24.598;2023-05-07T01:21:26;7.70;;;5.07;;
8285;SDS011;4181;43.416;24.598;2023-05-07T01:23:52;8.23;;;4.97;;
8285;SDS011;4181;43.416;24.598;2023-05-07T01:26:20;8.30;;;4.90;;
8285;SDS011;4181;43.416;24.598;2023-05-07T01:28:45;5.77;;;4.90;;
8285;SDS011;4181;43.416;24.598;2023-05-07T01:31:11;5.87;;;4.20;;
8285;SDS011;4181;43.416;24.598;2023-05-07T01:33:38;6.53;;;4.60;;
8285;SDS011;4181;43.416;24.598;2023-05-07T01:36:06;6.60;;;4.30;;
8285;SDS011;4181;43.416;24.598;2023-05-07T01:38:33;8.50;;;4.97;;
8285;SDS011;4181;43.416;24.598;2023-05-07T01:41:01;14.77;;;5.90;;
8285;SDS011;4181;43.416;24.598;2023-05-07T01:43:28;8.80;;;5.60;;
8285;SDS011;4181;43.416;24.598;2023-05-07T01:45:54;8.33;;;5.00;;
8285;SDS011;4181;43.416;24.598;2023-05-07T01:48:20;8.77;;;4.60;;
8285;SDS011;4181;43.416;24.598;2023-05-07T01:50:46;6.67;;;4.97;;
8285;SDS011;4181;43.416;24.598;2023-05-07T01:53:12;10.70;;;4.77;;
8285;SDS011;4181;43.416;24.598;2023-05-07T01:55:37;6.70;;;4.97;;
8285;SDS011;4181;43.416;24.598;2023-05-07T01:58:03;5.80;;;5.13;;
8285;SDS011;4181;43.416;24.598;2023-05-07T02:00:29;14.40;;;10.70;;
8285;SDS011;4181;43.416;24.598;2023-05-07T02:02:56;5.33;;;4.27;;
8285;SDS011;4181;43.416;24.598;2023-05-07T02:05:22;6.77;;;5.27;;
8285;SDS011;4181;43.416;24.598;2023-05-07T02:07:48;6.93;;;4.40;;
8285;SDS011;4181;43.416;24.598;2023-05-07T02:10:13;8.57;;;5.30;;
8285;SDS011;4181;43.416;24.598;2023-05-07T02:12:39;6.10;;;4.77;;
8285;SDS011;4181;43.416;24.598;2023-05-07T02:15:04;8.93;;;4.90;;
8285;SDS011;4181;43.416;24.598;2023-05-07T02:17:30;6.77;;;4.73;;
8285;SDS011;4181;43.416;24.598;2023-05-07T02:19:57;9.80;;;6.87;;
8285;SDS011;4181;43.416;24.598;2023-05-07T02:22:23;7.33;;;5.50;;
8285;SDS011;4181;43.416;24.598;2023-05-07T02:24:49;15.13;;;7.80;;
8285;SDS011;4181;43.416;24.598;2023-05-07T02:27:14;12.23;;;4.90;;
8285;SDS011;4181;43.416;24.598;2023-05-07T02:29:40;7.23;;;4.33;;
8285;SDS011;4181;43.416;24.598;2023-05-07T02:32:05;7.50;;;5.10;;
8285;SDS011;4181;43.416;24.598;2023-05-07T02:34:31;5.63;;;4.50;;
8285;SDS011;4181;43.416;24.598;2023-05-07T02:36:56;10.17;;;4.80;;
8285;SDS011;4181;43.416;24.598;2023-05-07T02:39:22;19.63;;;10.10;;
8285;SDS011;4181;43.416;24.598;2023-05-07T02:41:47;10.77;;;8.33;;
8285;SDS011;4181;43.416;24.598;2023-05-07T02:44:13;12.17;;;9.30;;
8285;SDS011;4181;43.416;24.598;2023-05-07T02:46:38;8.77;;;5.47;;
8285;SDS011;4181;43.416;24.598;2023-05-07T02:49:04;7.80;;;6.20;;
8285;SDS011;4181;43.416;24.598;2023-05-07T02:51:29;11.47;;;6.13;;
8285;SDS011;4181;43.416;24.598;2023-05-07T02:53:55;13.07;;;5.23;;
8285;SDS011;4181;43.416;24.598;2023-05-07T02:56:21;19.80;;;6.77;;
8285;SDS011;4181;43.416;24.598;2023-05-07T02:58:47;9.20;;;5.60;;
8285;SDS011;4181;43.416;24.598;2023-05-07T03:01:12;6.90;;;4.97;;
8285;SDS011;4181;43.416;24.598;2023-05-07T03:03:39;12.10;;;6.33;;
8285;SDS011;4181;43.416;24.598;2023-05-07T03:06:05;12.87;;;5.63;;
8285;SDS011;4181;43.416;24.598;2023-05-07T03:08:31;7.80;;;4.83;;
8285;SDS011;4181;43.416;24.598;2023-05-07T03:10:57;11.43;;;5.50;;
8285;SDS011;4181;43.416;24.598;2023-05-07T03:13:23;8.00;;;5.97;;
8285;SDS011;4181;43.416;24.598;2023-05-07T03:15:48;6.40;;;5.60;;
8285;SDS011;4181;43.416;24.598;2023-05-07T03:18:14;7.67;;;4.93;;
8285;SDS011;4181;43.416;24.598;2023-05-07T03:20:39;7.73;;;5.13;;
8285;SDS011;4181;43.416;24.598;2023-05-07T03:23:05;8.60;;;5.17;;
8285;SDS011;4181;43.416;24.598;2023-05-07T03:25:31;12.60;;;7.37;;
8285;SDS011;4181;43.416;24.598;2023-05-07T03:27:57;8.43;;;6.13;;
8285;SDS011;4181;43.416;24.598;2023-05-07T03:30:23;9.83;;;5.70;;
8285;SDS011;4181;43.416;24.598;2023-05-07T03:32:48;7.57;;;5.57;;
8285;SDS011;4181;43.416;24.598;2023-05-07T03:35:14;8.50;;;5.60;;
8285;SDS011;4181;43.416;24.598;2023-05-07T03:37:39;6.80;;;5.53;;
8285;SDS011;4181;43.416;24.598;2023-05-07T03:40:05;23.57;;;14.87;;
8285;SDS011;4181;43.416;24.598;2023-05-07T03:42:32;19.00;;;10.50;;
8285;SDS011;4181;43.416;24.598;2023-05-07T03:44:57;8.07;;;5.40;;
8285;SDS011;4181;43.416;24.598;2023-05-07T03:47:23;12.30;;;5.67;;
8285;SDS011;4181;43.416;24.598;2023-05-07T03:49:48;7.73;;;5.07;;
8285;SDS011;4181;43.416;24.598;2023-05-07T03:52:15;9.10;;;5.30;;
8285;SDS011;4181;43.416;24.598;2023-05-07T03:54:41;6.53;;;4.77;;
8285;SDS011;4181;43.416;24.598;2023-05-07T03:57:06;8.20;;;5.07;;
8285;SDS011;4181;43.416;24.598;2023-05-07T03:59:31;11.37;;;5.40;;
8285;SDS011;4181;43.416;24.598;2023-05-07T04:01:57;10.87;;;5.70;;
8285;SDS011;4181;43.416;24.598;2023-05-07T04:04:23;9.47;;;5.17;;
8285;SDS011;4181;43.416;24.598;2023-05-07T04:06:49;9.17;;;5.13;;
8285;SDS011;4181;43.416;24.598;2023-05-07T04:09:14;6.93;;;5.57;;
8285;SDS011;4181;43.416;24.598;2023-05-07T04:11:39;12.50;;;8.50;;
8285;SDS011;4181;43.416;24.598;2023-05-07T04:14:05;15.07;;;9.17;;
8285;SDS011;4181;43.416;24.598;2023-05-07T04:16:31;13.60;;;6.67;;
8285;SDS011;4181;43.416;24.598;2023-05-07T04:18:56;7.17;;;5.93;;
8285;SDS011;4181;43.416;24.598;2023-05-07T04:21:22;7.93;;;5.63;;
8285;SDS011;4181;43.416;24.598;2023-05-07T04:23:47;20.60;;;15.13;;
8285;SDS011;4181;43.416;24.598;2023-05-07T04:26:14;15.83;;;10.67;;
8285;SDS011;4181;43.416;24.598;2023-05-07T04:28:40;7.50;;;5.73;;
8285;SDS011;4181;43.416;24.598;2023-05-07T04:31:06;15.20;;;6.00;;
8285;SDS011;4181;43.416;24.598;2023-05-07T04:33:31;14.13;;;6.43;;
8285;SDS011;4181;43.416;24.598;2023-05-07T04:35:58;9.93;;;6.63;;
8285;SDS011;4181;43.416;24.598;2023-05-07T04:38:28;15.03;;;7.13;;
8285;SDS011;4181;43.416;24.598;2023-05-07T04:40:56;11.20;;;7.50;;
8285;SDS011;4181;43.416;24.598;2023-05-07T04:43:22;7.57;;;6.50;;
8285;SDS011;4181;43.416;24.598;2023-05-07T04:45:49;10.97;;;6.53;;
8285;SDS011;4181;43.416;24.598;2023-05-07T04:48:18;11.17;;;6.03;;
8285;SDS011;4181;43.416;24.598;2023-05-07T04:50:51;9.13;;;6.40;;
8285;SDS011;4181;43.416;24.598;2023-05-07T04:53:16;9.93;;;6.63;;
8285;SDS011;4181;43.416;24.598;2023-05-07T04:55:42;13.17;;;6.50;;
8285;SDS011;4181;43.416;24.598;2023-05-07T04:58:08;7.53;;;6.17;;
8285;SDS011;4181;43.416;24.598;2023-05-07T05:00:34;8.67;;;5.97;;
8285;SDS011;4181;43.416;24.598;2023-05-07T05:03:00;9.93;;;5.90;;
8285;SDS011;4181;43.416;24.598;2023-05-07T05:05:25;8.10;;;6.03;;
8285;SDS011;4181;43.416;24.598;2023-05-07T05:07:50;11.37;;;6.40;;
8285;SDS011;4181;43.416;24.598;2023-05-07T05:10:16;10.30;;;6.40;;
8285;SDS011;4181;43.416;24.598;2023-05-07T05:12:42;10.30;;;6.33;;
8285;SDS011;4181;43.416;24.598;2023-05-07T05:15:08;9.50;;;6.40;;
8285;SDS011;4181;43.416;24.598;2023-05-07T05:17:35;12.20;;;6.50;;
8285;SDS011;4181;43.416;24.598;2023-05-07T05:20:01;8.60;;;6.40;;
8285;SDS011;4181;43.416;24.598;2023-05-07T05:22:27;12.20;;;6.20;;
8285;SDS011;4181;43.416;24.598;2023-05-07T05:24:54;11.33;;;6.07;;
8285;SDS011;4181;43.416;24.598;2023-05-07T05:27:20;11.77;;;7.00;;
8285;SDS011;4181;43.416;24.598;2023-05-07T05:29:45;12.30;;;7.07;;
8285;SDS011;4181;43.416;24.598;2023-05-07T05:32:11;10.33;;;6.27;;
8285;SDS011;4181;43.416;24.598;2023-05-07T05:34:36;8.00;;;6.50;;
8285;SDS011;4181;43.416;24.598;2023-05-07T05:37:01;10.17;;;6.33;;
8285;SDS011;4181;43.416;24.598;2023-05-07T05:39:27;12.90;;;6.10;;
8285;SDS011;4181;43.416;24.598;2023-05-07T05:41:52;10.27;;;5.70;;
8285;SDS011;4181;43.416;24.598;2023-05-07T05:44:18;7.33;;;5.43;;
8285;SDS011;4181;43.416;24.598;2023-05-07T05:46:43;7.47;;;4.67;;
8285;SDS011;4181;43.416;24.598;2023-05-07T05:49:09;6.87;;;5.63;;
8285;SDS011;4181;43.416;24.598;2023-05-07T05:51:35;6.60;;;4.87;;
8285;SDS011;4181;43.416;24.598;2023-05-07T05:54:01;8.60;;;4.80;;
8285;SDS011;4181;43.416;24.598;2023-05-07T05:56:27;6.03;;;4.67;;
8285;SDS011;4181;43.416;24.598;2023-05-07T05:58:52;4.67;;;4.23;;
8285;SDS011;4181;43.416;24.598;2023-05-07T06:01:18;5.07;;;4.23;;
8285;SDS011;4181;43.416;24.598;2023-05-07T06:03:44;6.60;;;4.43;;
8285;SDS011;4181;43.416;24.598;2023-05-07T06:06:09;5.60;;;4.43;;
8285;SDS011;4181;43.416;24.598;2023-05-07T06:08:35;5.30;;;4.30;;
8285;SDS011;4181;43.416;24.598;2023-05-07T06:11:01;5.70;;;3.90;;
8285;SDS011;4181;43.416;24.598;2023-05-07T06:13:27;6.10;;;3.67;;
8285;SDS011;4181;43.416;24.598;2023-05-07T06:15:52;5.57;;;4.20;;
8285;SDS011;4181;43.416;24.598;2023-05-07T06:18:18;10.10;;;4.00;;
8285;SDS011;4181;43.416;24.598;2023-05-07T06:20:43;6.03;;;3.40;;
8285;SDS011;4181;43.416;24.598;2023-05-07T06:23:09;6.00;;;3.60;;
8285;SDS011;4181;43.416;24.598;2023-05-07T06:25:34;6.37;;;4.03;;
8285;SDS011;4181;43.416;24.598;2023-05-07T06:28:00;4.40;;;2.43;;
8285;SDS011;4181;43.416;24.598;2023-05-07T06:30:25;6.87;;;2.30;;
8285;SDS011;4181;43.416;24.598;2023-05-07T06:32:51;4.67;;;1.90;;
8285;SDS011;4181;43.416;24.598;2023-05-07T06:35:17;2.80;;;1.90;;
8285;SDS011;4181;43.416;24.598;2023-05-07T06:37:42;2.70;;;2.13;;
8285;SDS011;4181;43.416;24.598;2023-05-07T06:40:08;2.00;;;1.90;;
8285;SDS011;4181;43.416;24.598;2023-05-07T06:42:35;4.53;;;2.10;;
8285;SDS011;4181;43.416;24.598;2023-05-07T06:45:01;3.90;;;2.00;;
8285;SDS011;4181;43.416;24.598;2023-05-07T06:47:27;4.03;;;2.23;;
8285;SDS011;4181;43.416;24.598;2023-05-07T06:49:53;3.00;;;2.20;;
8285;SDS011;4181;43.416;24.598;2023-05-07T06:52:18;2.70;;;1.97;;
8285;SDS011;4181;43.416;24.598;2023-05-07T06:54:44;2.30;;;1.77;;
8285;SDS011;4181;43.416;24.598;2023-05-07T06:57:09;3.60;;;2.17;;
8285;SDS011;4181;43.416;24.598;2023-05-07T06:59:35;3.97;;;1.80;;
8285;SDS011;4181;43.416;24.598;2023-05-07T07:02:00;2.60;;;1.80;;
8285;SDS011;4181;43.416;24.598;2023-05-07T07:04:26;3.57;;;2.10;;
8285;SDS011;4181;43.416;24.598;2023-05-07T07:06:52;3.83;;;1.90;;
8285;SDS011;4181;43.416;24.598;2023-05-07T07:09:19;3.27;;;2.23;;
8285;SDS011;4181;43.416;24.598;2023-05-07T07:11:44;3.77;;;1.80;;
8285;SDS011;4181;43.416;24.598;2023-05-07T07:14:10;2.50;;;2.00;;
8285;SDS011;4181;43.416;24.598;2023-05-07T07:16:35;4.23;;;2.13;;
8285;SDS011;4181;43.416;24.598;2023-05-07T07:19:01;5.13;;;2.90;;
8285;SDS011;4181;43.416;24.598;2023-05-07T07:21:26;3.97;;;2.03;;
8285;SDS011;4181;43.416;24.598;2023-05-07T07:23:51;3.50;;;2.23;;
8285;SDS011;4181;43.416;24.598;2023-05-07T07:26:17;2.73;;;2.13;;
8285;SDS011;4181;43.416;24.598;2023-05-07T07:28:43;3.10;;;2.03;;
8285;SDS011;4181;43.416;24.598;2023-05-07T07:31:09;4.50;;;2.03;;
8285;SDS011;4181;43.416;24.598;2023-05-07T07:33:35;2.40;;;1.80;;
8285;SDS011;4181;43.416;24.598;2023-05-07T07:36:00;4.70;;;2.50;;
8285;SDS011;4181;43.416;24.598;2023-05-07T07:38:26;2.07;;;1.90;;
8285;SDS011;4181;43.416;24.598;2023-05-07T07:40:51;2.77;;;1.77;;
8285;SDS011;4181;43.416;24.598;2023-05-07T07:43:17;3.47;;;2.27;;
8285;SDS011;4181;43.416;24.598;2023-05-07T07:45:42;6.20;;;2.37;;
8285;SDS011;4181;43.416;24.598;2023-05-07T07:48:08;3.07;;;2.10;;
8285;SDS011;4181;43.416;24.598;2023-05-07T07:50:33;4.30;;;2.10;;
8285;SDS011;4181;43.416;24.598;2023-05-07T07:52:58;4.07;;;2.07;;
8285;SDS011;4181;43.416;24.598;2023-05-07T07:55:25;4.53;;;2.47;;
8285;SDS011;4181;43.416;24.598;2023-05-07T07:57:52;6.07;;;1.93;;
8285;SDS011;4181;43.416;24.598;2023-05-07T08:00:17;3.87;;;2.10;;
8285;SDS011;4181;43.416;24.598;2023-05-07T08:02:43;2.70;;;2.07;;
8285;SDS011;4181;43.416;24.598;2023-05-07T08:05:08;3.73;;;2.00;;
8285;SDS011;4181;43.416;24.598;2023-05-07T08:07:34;3.67;;;2.00;;
8285;SDS011;4181;43.416;24.598;2023-05-07T08:10:00;2.73;;;2.07;;
8285;SDS011;4181;43.416;24.598;2023-05-07T08:12:25;2.20;;;1.73;;
8285;SDS011;4181;43.416;24.598;2023-05-07T08:14:51;2.63;;;1.90;;
8285;SDS011;4181;43.416;24.598;2023-05-07T08:17:16;4.87;;;1.93;;
8285;SDS011;4181;43.416;24.598;2023-05-07T08:19:42;2.20;;;1.70;;
8285;SDS011;4181;43.416;24.598;2023-05-07T08:22:08;4.40;;;1.90;;
8285;SDS011;4181;43.416;24.598;2023-05-07T08:24:35;5.73;;;2.03;;
8285;SDS011;4181;43.416;24.598;2023-05-07T08:27:01;2.63;;;2.00;;
8285;SDS011;4181;43.416;24.598;2023-05-07T08:29:26;3.80;;;1.90;;
8285;SDS011;4181;43.416;24.598;2023-05-07T08:31:52;4.37;;;2.30;;
8285;SDS011;4181;43.416;24.598;2023-05-07T08:34:17;5.23;;;2.03;;
8285;SDS011;4181;43.416;24.598;2023-05-07T08:36:43;4.60;;;2.27;;
8285;SDS011;4181;43.416;24.598;2023-05-07T08:39:11;4.00;;;1.70;;
8285;SDS011;4181;43.416;24.598;2023-05-07T08:41:36;1.80;;;1.70;;
8285;SDS011;4181;43.416;24.598;2023-05-07T08:44:02;3.57;;;1.63;;
8285;SDS011;4181;43.416;24.598;2023-05-07T08:46:31;2.97;;;1.63;;
8285;SDS011;4181;43.416;24.598;2023-05-07T08:48:57;1.83;;;1.60;;
8285;SDS011;4181;43.416;24.598;2023-05-07T08:51:23;3.97;;;1.83;;
8285;SDS011;4181;43.416;24.598;2023-05-07T08:53:49;6.37;;;1.63;;
8285;SDS011;4181;43.416;24.598;2023-05-07T08:56:15;3.33;;;2.20;;
8285;SDS011;4181;43.416;24.598;2023-05-07T08:58:42;3.93;;;1.67;;
8285;SDS011;4181;43.416;24.598;2023-05-07T09:01:09;1.90;;;1.80;;
8285;SDS011;4181;43.416;24.598;2023-05-07T09:03:38;4.33;;;1.63;;
8285;SDS011;4181;43.416;24.598;2023-05-07T09:06:04;2.37;;;1.60;;
8285;SDS011;4181;43.416;24.598;2023-05-07T09:08:31;2.30;;;1.27;;
8285;SDS011;4181;43.416;24.598;2023-05-07T09:10:58;5.03;;;1.97;;
8285;SDS011;4181;43.416;24.598;2023-05-07T09:13:24;4.27;;;1.60;;
8285;SDS011;4181;43.416;24.598;2023-05-07T09:15:49;4.07;;;2.07;;
8285;SDS011;4181;43.416;24.598;2023-05-07T09:18:15;2.37;;;1.77;;
8285;SDS011;4181;43.416;24.598;2023-05-07T09:20:40;3.70;;;1.70;;
8285;SDS011;4181;43.416;24.598;2023-05-07T09:23:06;2.70;;;1.83;;
8285;SDS011;4181;43.416;24.598;2023-05-07T09:25:33;3.50;;;1.80;;
8285;SDS011;4181;43.416;24.598;2023-05-07T09:28:00;4.43;;;1.70;;
8285;SDS011;4181;43.416;24.598;2023-05-07T09:30:30;5.30;;;1.97;;
8285;SDS011;4181;43.416;24.598;2023-05-07T09:32:56;2.63;;;1.63;;
8285;SDS011;4181;43.416;24.598;2023-05-07T09:35:26;3.73;;;1.70;;
8285;SDS011;4181;43.416;24.598;2023-05-07T09:37:57;2.30;;;1.67;;
8285;SDS011;4181;43.416;24.598;2023-05-07T09:40:24;7.63;;;2.00;;
8285;SDS011;4181;43.416;24.598;2023-05-07T09:42:52;3.70;;;1.60;;
8285;SDS011;4181;43.416;24.598;2023-05-07T09:45:21;6.47;;;1.70;;
8285;SDS011;4181;43.416;24.598;2023-05-07T09:47:57;5.93;;;1.90;;
8285;SDS011;4181;43.416;24.598;2023-05-07T09:50:27;3.30;;;1.83;;
8285;SDS011;4181;43.416;24.598;2023-05-07T09:52:57;3.50;;;1.80;;
8285;SDS011;4181;43.416;24.598;2023-05-07T09:55:23;2.90;;;1.60;;
8285;SDS011;4181;43.416;24.598;2023-05-07T09:57:50;4.90;;;2.00;;
8285;SDS011;4181;43.416;24.598;2023-05-07T10:00:17;2.30;;;1.73;;
8285;SDS011;4181;43.416;24.598;2023-05-07T10:02:45;5.00;;;3.80;;
8285;SDS011;4181;43.416;24.598;2023-05-07T10:05:14;2.80;;;1.53;;
8285;SDS011;4181;43.416;24.598;2023-05-07T10:07:40;3.43;;;1.70;;
8285;SDS011;4181;43.416;24.598;2023-05-07T10:10:06;2.67;;;1.60;;
8285;SDS011;4181;43.416;24.598;2023-05-07T10:12:32;2.87;;;1.80;;
8285;SDS011;4181;43.416;24.598;2023-05-07T10:15:05;2.90;;;1.47;;
8285;SDS011;4181;43.416;24.598;2023-05-07T10:17:32;2.90;;;1.50;;
8285;SDS011;4181;43.416;24.598;2023-05-07T10:20:02;3.27;;;1.77;;
8285;SDS011;4181;43.416;24.598;2023-05-07T10:22:29;2.97;;;1.70;;
8285;SDS011;4181;43.416;24.598;2023-05-07T10:25:06;4.40;;;1.63;;
8285;SDS011;4181;43.416;24.598;2023-05-07T10:27:38;3.77;;;1.60;;
8285;SDS011;4181;43.416;24.598;2023-05-07T10:30:15;1.93;;;1.70;;
8285;SDS011;4181;43.416;24.598;2023-05-07T10:33:01;5.70;;;2.00;;
8285;SDS011;4181;43.416;24.598;2023-05-07T10:35:31;4.03;;;1.80;;
8285;SDS011;4181;43.416;24.598;2023-05-07T10:38:06;4.27;;;1.50;;
8285;SDS011;4181;43.416;24.598;2023-05-07T10:40:32;4.93;;;1.60;;
8285;SDS011;4181;43.416;24.598;2023-05-07T10:45:25;3.10;;;1.80;;
8285;SDS011;4181;43.416;24.598;2023-05-07T10:50:36;1.93;;;1.70;;
8285;SDS011;4181;43.416;24.598;2023-05-07T10:58:34;3.93;;;1.70;;
8285;SDS011;4181;43.416;24.598;2023-05-07T11:01:02;4.57;;;2.00;;
8285;SDS011;4181;43.416;24.598;2023-05-07T11:03:28;5.87;;;2.20;;
8285;SDS011;4181;43.416;24.598;2023-05-07T11:06:15;3.13;;;1.80;;
8285;SDS011;4181;43.416;24.598;2023-05-07T11:08:56;4.33;;;1.80;;
8285;SDS011;4181;43.416;24.598;2023-05-07T11:14:42;2.90;;;1.67;;
8285;SDS011;4181;43.416;24.598;2023-05-07T11:17:10;4.17;;;2.00;;
8285;SDS011;4181;43.416;24.598;2023-05-07T11:25:19;3.63;;;1.60;;
8285;SDS011;4181;43.416;24.598;2023-05-07T11:27:44;2.43;;;1.80;;
8285;SDS011;4181;43.416;24.598;2023-05-07T11:30:11;3.37;;;1.80;;
8285;SDS011;4181;43.416;24.598;2023-05-07T11:32:43;2.60;;;1.70;;
8285;SDS011;4181;43.416;24.598;2023-05-07T11:35:11;2.20;;;1.60;;
8285;SDS011;4181;43.416;24.598;2023-05-07T11:37:37;3.63;;;1.90;;
8285;SDS011;4181;43.416;24.598;2023-05-07T11:40:04;3.07;;;1.93;;
8285;SDS011;4181;43.416;24.598;2023-05-07T11:42:34;2.27;;;1.70;;
8285;SDS011;4181;43.416;24.598;2023-05-07T11:45:02;1.97;;;1.67;;
8285;SDS011;4181;43.416;24.598;2023-05-07T11:47:31;1.83;;;1.73;;
8285;SDS011;4181;43.416;24.598;2023-05-07T11:49:57;8.63;;;3.60;;
8285;SDS011;4181;43.416;24.598;2023-05-07T11:52:28;5.17;;;2.03;;
8285;SDS011;4181;43.416;24.598;2023-05-07T11:54:54;3.60;;;2.20;;
8285;SDS011;4181;43.416;24.598;2023-05-07T11:57:22;3.97;;;1.90;;
8285;SDS011;4181;43.416;24.598;2023-05-07T11:59:52;3.97;;;2.00;;
8285;SDS011;4181;43.416;24.598;2023-05-07T12:02:21;1.90;;;1.70;;
8285;SDS011;4181;43.416;24.598;2023-05-07T12:04:47;1.77;;;1.67;;
8285;SDS011;4181;43.416;24.598;2023-05-07T12:07:13;4.73;;;2.00;;
8285;SDS011;4181;43.416;24.598;2023-05-07T12:09:40;2.27;;;2.00;;
8285;SDS011;4181;43.416;24.598;2023-05-07T12:12:06;4.47;;;2.00;;
8285;SDS011;4181;43.416;24.598;2023-05-07T12:14:32;2.50;;;1.73;;
8285;SDS011;4181;43.416;24.598;2023-05-07T12:16:58;2.90;;;2.00;;
8285;SDS011;4181;43.416;24.598;2023-05-07T12:19:28;4.73;;;1.80;;
8285;SDS011;4181;43.416;24.598;2023-05-07T12:21:54;12.00;;;2.97;;
8285;SDS011;4181;43.416;24.598;2023-05-07T12:24:21;3.17;;;2.33;;
8285;SDS011;4181;43.416;24.598;2023-05-07T12:26:47;2.13;;;1.93;;
8285;SDS011;4181;43.416;24.598;2023-05-07T12:29:13;4.80;;;2.37;;
8285;SDS011;4181;43.416;24.598;2023-05-07T12:31:42;2.27;;;1.90;;
8285;SDS011;4181;43.416;24.598;2023-05-07T12:34:08;2.23;;;2.03;;
8285;SDS011;4181;43.416;24.598;2023-05-07T12:36:37;2.33;;;2.13;;
8285;SDS011;4181;43.416;24.598;2023-05-07T12:39:04;5.63;;;2.40;;
8285;SDS011;4181;43.416;24.598;2023-05-07T12:41:51;4.13;;;2.27;;
8285;SDS011;4181;43.416;24.598;2023-05-07T12:44:19;3.20;;;1.90;;
8285;SDS011;4181;43.416;24.598;2023-05-07T12:46:47;2.43;;;2.00;;
8285;SDS011;4181;43.416;24.598;2023-05-07T12:49:12;3.73;;;2.23;;
8285;SDS011;4181;43.416;24.598;2023-05-07T12:51:38;3.80;;;2.30;;
8285;SDS011;4181;43.416;24.598;2023-05-07T12:54:03;5.93;;;2.30;;
8285;SDS011;4181;43.416;24.598;2023-05-07T12:56:35;5.60;;;2.40;;
8285;SDS011;4181;43.416;24.598;2023-05-07T12:59:01;5.30;;;2.40;;
8285;SDS011;4181;43.416;24.598;2023-05-07T13:01:30;2.30;;;1.80;;
8285;SDS011;4181;43.416;24.598;2023-05-07T13:03:57;2.40;;;2.10;;
8285;SDS011;4181;43.416;24.598;2023-05-07T13:06:26;5.40;;;2.20;;
8285;SDS011;4181;43.416;24.598;2023-05-07T13:08:51;2.63;;;2.30;;
8285;SDS011;4181;43.416;24.598;2023-05-07T13:11:17;4.23;;;2.20;;
8285;SDS011;4181;43.416;24.598;2023-05-07T13:13:42;6.33;;;2.20;;
8285;SDS011;4181;43.416;24.598;2023-05-07T13:16:08;3.10;;;2.20;;
8285;SDS011;4181;43.416;24.598;2023-05-07T13:18:36;3.90;;;2.40;;
8285;SDS011;4181;43.416;24.598;2023-05-07T13:21:03;4.23;;;2.43;;
8285;SDS011;4181;43.416;24.598;2023-05-07T13:23:29;3.53;;;2.30;;
8285;SDS011;4181;43.416;24.598;2023-05-07T13:25:54;31.73;;;22.87;;
8285;SDS011;4181;43.416;24.598;2023-05-07T13:30:56;7.70;;;2.27;;
8285;SDS011;4181;43.416;24.598;2023-05-07T13:33:21;3.07;;;2.23;;
8285;SDS011;4181;43.416;24.598;2023-05-07T13:35:47;5.23;;;2.10;;
8285;SDS011;4181;43.416;24.598;2023-05-07T13:38:12;4.03;;;2.10;;
8285;SDS011;4181;43.416;24.598;2023-05-07T13:40:38;5.07;;;1.97;;
8285;SDS011;4181;43.416;24.598;2023-05-07T13:43:05;2.20;;;2.00;;
8285;SDS011;4181;43.416;24.598;2023-05-07T13:45:31;4.80;;;2.03;;
8285;SDS011;4181;43.416;24.598;2023-05-07T13:47:56;4.83;;;2.40;;
8285;SDS011;4181;43.416;24.598;2023-05-07T13:50:22;3.57;;;2.50;;
8285;SDS011;4181;43.416;24.598;2023-05-07T13:52:48;7.43;;;2.30;;
8285;SDS011;4181;43.416;24.598;2023-05-07T13:55:18;4.00;;;2.53;;
8285;SDS011;4181;43.416;24.598;2023-05-07T13:57:45;3.37;;;2.10;;
8285;SDS011;4181;43.416;24.598;2023-05-07T14:00:12;7.37;;;2.23;;
8285;SDS011;4181;43.416;24.598;2023-05-07T14:02:38;5.23;;;2.27;;
8285;SDS011;4181;43.416;24.598;2023-05-07T14:05:04;3.30;;;2.50;;
8285;SDS011;4181;43.416;24.598;2023-05-07T14:07:29;6.03;;;2.43;;
8285;SDS011;4181;43.416;24.598;2023-05-07T14:09:56;2.37;;;1.83;;
8285;SDS011;4181;43.416;24.598;2023-05-07T14:12:22;5.63;;;3.00;;
8285;SDS011;4181;43.416;24.598;2023-05-07T14:14:50;3.07;;;2.50;;
8285;SDS011;4181;43.416;24.598;2023-05-07T14:17:16;5.57;;;2.73;;
8285;SDS011;4181;43.416;24.598;2023-05-07T14:19:43;4.27;;;2.00;;
8285;SDS011;4181;43.416;24.598;2023-05-07T14:22:08;4.50;;;1.97;;
8285;SDS011;4181;43.416;24.598;2023-05-07T14:24:34;3.73;;;2.00;;
8285;SDS011;4181;43.416;24.598;2023-05-07T14:27:00;4.27;;;1.83;;
8285;SDS011;4181;43.416;24.598;2023-05-07T14:29:25;5.10;;;2.30;;
8285;SDS011;4181;43.416;24.598;2023-05-07T14:31:50;4.77;;;2.17;;
8285;SDS011;4181;43.416;24.598;2023-05-07T14:34:16;4.10;;;2.20;;
8285;SDS011;4181;43.416;24.598;2023-05-07T14:36:41;4.77;;;2.17;;
8285;SDS011;4181;43.416;24.598;2023-05-07T14:39:07;3.97;;;2.30;;
8285;SDS011;4181;43.416;24.598;2023-05-07T14:41:33;3.63;;;2.80;;
8285;SDS011;4181;43.416;24.598;2023-05-07T14:43:58;3.70;;;2.03;;
8285;SDS011;4181;43.416;24.598;2023-05-07T14:46:24;5.53;;;2.03;;
8285;SDS011;4181;43.416;24.598;2023-05-07T14:48:49;4.13;;;2.50;;
8285;SDS011;4181;43.416;24.598;2023-05-07T14:51:15;3.80;;;1.90;;
8285;SDS011;4181;43.416;24.598;2023-05-07T14:53:41;2.43;;;2.23;;
8285;SDS011;4181;43.416;24.598;2023-05-07T14:56:06;3.63;;;2.10;;
8285;SDS011;4181;43.416;24.598;2023-05-07T14:58:32;2.80;;;2.03;;
8285;SDS011;4181;43.416;24.598;2023-05-07T15:00:59;3.57;;;2.00;;
8285;SDS011;4181;43.416;24.598;2023-05-07T15:03:25;2.37;;;2.00;;
8285;SDS011;4181;43.416;24.598;2023-05-07T15:05:52;3.40;;;2.30;;
8285;SDS011;4181;43.416;24.598;2023-05-07T15:08:17;3.40;;;2.03;;
8285;SDS011;4181;43.416;24.598;2023-05-07T15:10:43;3.23;;;2.30;;
8285;SDS011;4181;43.416;24.598;2023-05-07T15:13:09;2.20;;;2.00;;
8285;SDS011;4181;43.416;24.598;2023-05-07T15:15:36;5.73;;;2.30;;